Time;durP1;ratioP1;P1;durP2;ratioP2;P2;SDS_P1;SDS_P2;PMS_P1;PMS_P2;Temp;Humidity;BMP_temperature;BMP_pressure;BME280_temperature;BME280_humidity;BME280_pressure;Samples;Min_cycle;Max_cycle;Signal;HPM_P1;HPM_P2
2023/03/28 00:04:21;;;;;;;6.17;2.80;;;;;;;10.94;100.00;99122.88;31212530;28;20037;-75
2023/03/28 00:19:24;;;;;;;6.07;3.23;;;;;;;10.91;100.00;99099.31;31188684;28;20049;-75
2023/03/28 00:34:26;;;;;;;10.73;3.40;;;;;;;10.88;100.00;99086.63;31205411;28;20053;-75
2023/03/28 00:49:28;;;;;;;4.87;3.10;;;;;;;10.91;100.00;99075.63;31182416;28;20061;-76
2023/03/28 01:04:45;;;;;;;4.57;3.07;;;;;;;10.70;100.00;99056.66;31198298;28;20052;-75
2023/03/28 01:20:16;;;;;;;4.80;2.50;;;;;;;10.62;100.00;99052.72;31232929;28;20053;-76
2023/03/28 01:35:35;;;;;;;5.70;2.40;;;;;;;10.36;100.00;99044.72;31226075;28;20134;-74
2023/03/28 01:50:42;;;;;;;6.27;2.50;;;;;;;10.39;100.00;99054.69;31204508;28;20430;-75
2023/03/28 02:05:46;;;;;;;5.03;2.40;;;;;;;10.20;100.00;99032.06;31230423;28;20056;-78
2023/03/28 02:20:52;;;;;;;4.27;2.50;;;;;;;10.03;100.00;99008.28;31221990;28;20119;-76
2023/03/28 02:36:33;;;;;;;6.47;2.50;;;;;;;9.97;100.00;98993.75;31223109;28;20111;-76
2023/03/28 02:52:08;;;;;;;3.57;2.50;;;;;;;10.10;100.00;98978.19;31230429;28;20415;-77
2023/03/28 03:07:10;;;;;;;5.13;2.00;;;;;;;9.86;100.00;98954.25;31194246;28;20104;-78
2023/03/28 03:22:12;;;;;;;5.83;2.93;;;;;;;9.70;100.00;98918.41;31220269;28;20466;-77
2023/03/28 03:37:21;;;;;;;6.17;3.00;;;;;;;9.26;100.00;98901.34;31218414;28;20757;-78
2023/03/28 03:52:23;;;;;;;9.27;3.27;;;;;;;9.31;100.00;98887.25;31223622;28;20438;-75
2023/03/28 04:07:25;;;;;;;5.73;3.23;;;;;;;9.22;100.00;98847.31;31183037;28;20088;-79
2023/03/28 04:22:28;;;;;;;8.27;4.63;;;;;;;9.27;100.00;98832.47;31214344;28;20061;-77
2023/03/28 04:37:30;;;;;;;6.97;4.23;;;;;;;9.51;100.00;98852.50;31224063;28;20057;-77
2023/03/28 04:52:32;;;;;;;7.80;3.80;;;;;;;9.88;100.00;98875.94;31218041;28;20053;-79
2023/03/28 05:07:35;;;;;;;11.23;5.27;;;;;;;9.83;100.00;98857.53;31248717;28;20057;-77
2023/03/28 05:22:37;;;;;;;9.50;4.37;;;;;;;9.93;100.00;98850.97;31223864;28;20054;-76
2023/03/28 05:37:40;;;;;;;11.23;5.93;;;;;;;10.41;100.00;98780.97;31161494;28;20054;-76
2023/03/28 05:52:45;;;;;;;8.25;4.72;;;;;;;10.78;100.00;98751.19;31192046;28;20092;-77
2023/03/28 06:07:47;;;;;;;8.50;4.47;;;;;;;10.98;100.00;98767.78;31233857;28;20053;-78
2023/03/28 06:22:49;;;;;;;11.67;5.40;;;;;;;11.12;100.00;98728.38;31234233;28;20049;-80
2023/03/28 06:37:51;;;;;;;5.90;3.87;;;;;;;11.31;100.00;98767.91;31232578;28;20081;-82
2023/03/28 06:52:53;;;;;;;5.90;3.30;;;;;;;11.32;100.00;98714.34;31167999;28;20419;-82
2023/03/28 07:07:55;;;;;;;4.40;2.87;;;;;;;11.53;100.00;98727.72;31207934;28;20099;-80
2023/03/28 07:22:57;;;;;;;4.60;3.07;;;;;;;12.00;100.00;98684.81;31293071;28;20056;-81
2023/03/28 07:37:58;;;;;;;6.20;2.80;;;;;;;11.90;100.00;98709.31;31236381;28;20058;-79
2023/03/28 07:53:00;;;;;;;3.07;2.43;;;;;;;11.73;100.00;98650.31;31211259;28;20057;-79
2023/03/28 08:08:04;;;;;;;3.20;2.20;;;;;;;11.82;100.00;98634.72;31227194;28;20073;-78
2023/03/28 08:23:06;;;;;;;4.47;2.73;;;;;;;12.12;100.00;98635.63;31183156;28;20072;-79
2023/03/28 08:38:08;;;;;;;8.40;3.60;;;;;;;12.02;100.00;98560.75;31171328;28;20049;-80
2023/03/28 08:53:34;;;;;;;6.30;3.57;;;;;;;11.81;100.00;98554.38;31205822;28;20376;-79
2023/03/28 09:08:43;;;;;;;8.60;4.00;;;;;;;11.88;100.00;98564.91;31173320;28;20049;-84
2023/03/28 09:24:12;;;;;;;9.17;3.80;;;;;;;12.21;100.00;98537.63;31226741;28;20518;-79
2023/03/28 09:39:32;;;;;;;6.67;3.30;;;;;;;12.32;100.00;98537.06;31190428;28;20049;-82
2023/03/28 09:54:34;;;;;;;4.50;1.60;;;;;;;12.54;100.00;98525.81;31229863;28;20510;-78
2023/03/28 10:09:52;;;;;;;4.07;2.10;;;;;;;12.29;100.00;98544.19;31221273;28;20132;-77
2023/03/28 10:24:55;;;;;;;5.10;2.50;;;;;;;11.48;100.00;98531.94;31227587;28;20704;-79
2023/03/28 10:40:21;;;;;;;6.10;3.03;;;;;;;11.15;100.00;98510.97;31191916;28;20041;-76
2023/03/28 10:55:29;;;;;;;4.40;2.87;;;;;;;11.10;100.00;98470.84;31219759;28;20042;-79
2023/03/28 11:10:43;;;;;;;5.10;3.00;;;;;;;11.34;100.00;98437.53;31224116;28;20056;-79
2023/03/28 11:25:59;;;;;;;5.63;3.20;;;;;;;11.39;100.00;98448.50;31208733;28;20049;-80
2023/03/28 11:41:15;;;;;;;8.03;3.07;;;;;;;11.38;100.00;98462.53;31223406;28;20453;-80
2023/03/28 11:56:29;;;;;;;10.80;4.63;;;;;;;11.20;100.00;98460.69;31203851;28;20052;-83
2023/03/28 12:12:01;;;;;;;10.23;5.47;;;;;;;11.05;100.00;98490.50;31195232;28;20065;-78
2023/03/28 12:27:18;;;;;;;13.10;5.30;;;;;;;11.16;100.00;98416.66;31201238;28;20041;-78
2023/03/28 12:42:23;;;;;;;10.13;5.23;;;;;;;11.26;100.00;98418.13;31181664;28;20476;-78
2023/03/28 12:57:40;;;;;;;9.23;6.00;;;;;;;11.49;100.00;98424.75;31191719;28;20115;-78
2023/03/28 13:12:57;;;;;;;14.13;6.83;;;;;;;11.45;100.00;98435.03;31188254;28;20056;-78
2023/03/28 13:28:12;;;;;;;19.10;9.27;;;;;;;11.64;100.00;98433.69;31183260;28;20049;-75
2023/03/28 13:43:43;;;;;;;12.90;6.87;;;;;;;11.65;100.00;98431.72;31177174;28;20062;-78
2023/03/28 13:58:48;;;;;;;17.07;7.60;;;;;;;11.66;100.00;98439.41;31178462;28;20106;-75
2023/03/28 14:14:00;;;;;;;19.27;7.10;;;;;;;11.83;100.00;98454.06;31206319;28;20057;-74
2023/03/28 14:29:09;;;;;;;11.17;4.80;;;;;;;11.75;100.00;98458.38;31224597;28;20076;-75
2023/03/28 14:44:11;;;;;;;13.97;5.63;;;;;;;11.61;100.00;98480.81;31208065;28;20120;-79
2023/03/28 14:59:18;;;;;;;13.77;6.37;;;;;;;11.63;100.00;98470.22;31229631;28;20068;-76
2023/03/28 15:14:44;;;;;;;16.23;8.23;;;;;;;11.76;100.00;98478.94;31207037;28;20057;-78
2023/03/28 15:29:46;;;;;;;;;;;;;;;11.62;100.00;98525.78;31225161;28;20042;-79
2023/03/28 15:44:57;;;;;;;24.60;11.97;;;;;;;11.58;100.00;98533.34;31193180;28;20016;-82
2023/03/28 15:59:59;;;;;;;19.27;10.43;;;;;;;11.46;100.00;98542.50;31202285;28;20060;-77
2023/03/28 16:15:02;;;;;;;14.97;7.73;;;;;;;11.45;100.00;98577.06;31206019;28;20053;-79
2023/03/28 16:30:13;;;;;;;8.00;4.30;;;;;;;11.37;100.00;98607.75;31191011;28;20111;-80
2023/03/28 16:45:16;;;;;;;3.47;2.30;;;;;;;11.22;100.00;98630.16;31205408;28;20050;-82
2023/03/28 17:00:18;;;;;;;13.70;5.53;;;;;;;10.78;100.00;98667.03;31171760;28;20045;-82
2023/03/28 17:15:21;;;;;;;3.90;2.20;;;;;;;10.63;100.00;98704.88;31195502;28;20050;-83
2023/03/28 17:30:23;;;;;;;7.63;3.50;;;;;;;10.48;100.00;98709.41;31198339;28;20108;-79
2023/03/28 17:45:25;;;;;;;2.40;1.70;;;;;;;10.22;100.00;98728.63;31162460;28;20418;-80
2023/03/28 18:00:27;;;;;;;4.50;2.80;;;;;;;10.14;100.00;98724.69;31222647;28;20451;-81
2023/03/28 18:15:32;;;;;;;3.03;2.40;;;;;;;10.01;100.00;98736.84;31204554;28;20119;-79
2023/03/28 18:30:35;;;;;;;16.17;7.57;;;;;;;9.78;100.00;98724.56;31243843;28;20049;-77
2023/03/28 18:45:37;;;;;;;17.90;9.83;;;;;;;9.46;100.00;98747.41;31236339;28;20088;-80
2023/03/28 19:00:40;;;;;;;8.33;4.60;;;;;;;9.13;100.00;98769.50;31229605;28;20060;-78
2023/03/28 19:15:42;;;;;;;49.20;15.30;;;;;;;9.00;100.00;98782.31;31247550;28;20144;-80
2023/03/28 19:30:44;;;;;;;5.60;3.93;;;;;;;8.66;100.00;98774.19;31218572;28;20054;-77
2023/03/28 19:45:47;;;;;;;4.53;3.07;;;;;;;8.61;100.00;98774.75;31197639;28;20042;-79
2023/03/28 20:00:49;;;;;;;4.03;2.43;;;;;;;8.29;100.00;98811.66;31178286;28;20045;-79
2023/03/28 20:15:51;;;;;;;4.43;3.07;;;;;;;7.99;100.00;98839.22;31229893;28;20124;-79
2023/03/28 20:30:53;;;;;;;3.37;2.07;;;;;;;7.97;100.00;98860.50;31205228;28;20106;-79
2023/03/28 20:46:00;;;;;;;4.27;2.63;;;;;;;7.84;100.00;98882.84;31174781;28;20060;-79
2023/03/28 21:01:02;;;;;;;5.03;2.87;;;;;;;7.55;100.00;98890.25;31200596;28;20058;-79
2023/03/28 21:16:05;;;;;;;6.53;4.00;;;;;;;7.39;100.00;98899.13;31147090;28;20057;-78
2023/03/28 21:31:18;;;;;;;10.53;3.50;;;;;;;7.34;100.00;98923.16;31090707;28;21157;-80
2023/03/28 21:46:21;;;;;;;3.37;2.67;;;;;;;7.25;100.00;98941.91;31089398;28;20054;-78
2023/03/28 22:01:23;;;;;;;4.57;3.23;;;;;;;7.22;100.00;98945.47;31154301;28;20085;-79
2023/03/28 22:16:27;;;;;;;3.23;2.50;;;;;;;7.03;100.00;98971.38;31157250;28;20144;-78
2023/03/28 22:31:29;;;;;;;5.30;2.10;;;;;;;6.77;100.00;98956.91;31180705;28;20084;-79
2023/03/28 22:46:31;;;;;;;4.10;2.13;;;;;;;6.44;100.00;98935.28;31222550;28;20045;-78
2023/03/28 23:01:34;;;;;;;5.43;2.03;;;;;;;6.33;100.00;98969.81;31151374;28;20057;-77
2023/03/28 23:16:37;;;;;;;3.87;2.20;;;;;;;6.23;100.00;98999.66;31145375;28;20153;-76
2023/03/28 23:31:39;;;;;;;3.90;2.43;;;;;;;6.34;100.00;99005.59;31204224;28;20824;-78
2023/03/28 23:46:41;;;;;;;3.73;2.30;;;;;;;6.20;100.00;99005.88;31191162;28;20099;-77
